createdAt,value
2023-02-03T00:00:48.526Z,95912.03
2023-02-03T00:03:34.809Z,95934.78
2023-02-03T00:06:20.701Z,95941.19
2023-02-03T00:09:06.662Z,95950.81
2023-02-03T00:11:53.324Z,95971.41
2023-02-03T00:14:39.470Z,95967.84
2023-02-03T00:17:25.265Z,95966.75
2023-02-03T00:20:11.879Z,95974.22
2023-02-03T00:23:09.097Z,95978.44
2023-02-03T00:25:54.767Z,95971.19
2023-02-03T00:28:41.704Z,95973.81
2023-02-03T00:31:27.967Z,95987.91
2023-02-03T00:34:13.782Z,95978.22
2023-02-03T00:36:59.772Z,95988.31
2023-02-03T00:39:45.478Z,95997.38
2023-02-03T00:42:35.699Z,96000.53
2023-02-03T00:45:21.889Z,96011.41
2023-02-03T00:48:17.167Z,96008.91
2023-02-03T00:51:03.304Z,96021.19
2023-02-03T00:53:49.498Z,96010.47
2023-02-03T00:56:35.225Z,96006.34
2023-02-03T00:59:22.005Z,95992.00
2023-02-03T01:02:07.645Z,96009.94
2023-02-03T01:04:53.428Z,96009.13
2023-02-03T01:07:39.161Z,96016.03
2023-02-03T01:10:25.240Z,96011.72
2023-02-03T01:13:11.607Z,96004.78
2023-02-03T01:15:57.921Z,96012.78
2023-02-03T01:18:46.458Z,96012.69
2023-02-03T01:21:32.923Z,96030.81
2023-02-03T01:24:18.735Z,96035.53
2023-02-03T01:27:06.287Z,96040.84
2023-02-03T01:29:52.217Z,96041.84
2023-02-03T01:32:40.683Z,96043.13
2023-02-03T01:35:26.693Z,96036.41
2023-02-03T01:38:13.907Z,96044.41
2023-02-03T01:40:59.766Z,96053.00
2023-02-03T01:43:49.574Z,96049.13
2023-02-03T01:46:44.819Z,96048.56
2023-02-03T01:49:35.720Z,96044.50
2023-02-03T01:52:21.906Z,96042.31
2023-02-03T01:55:13.423Z,96042.00
2023-02-03T01:58:32.371Z,96054.28
2023-02-03T02:01:19.717Z,96059.13
2023-02-03T02:04:08.841Z,96050.31
2023-02-03T02:06:56.587Z,96050.25
2023-02-03T02:09:43.967Z,96050.00
2023-02-03T02:12:29.632Z,96051.53
2023-02-03T02:15:16.740Z,96047.34
2023-02-03T02:18:02.558Z,96042.00
2023-02-03T02:21:08.654Z,96043.06
2023-02-03T02:24:15.667Z,96045.72
2023-02-03T02:27:04.488Z,96048.38
2023-02-03T02:30:12.111Z,96055.91
2023-02-03T02:33:21.108Z,96058.47
2023-02-03T02:36:07.653Z,96060.09
2023-02-03T02:39:12.464Z,96044.28
2023-02-03T02:42:04.834Z,96057.34
2023-02-03T02:44:56.113Z,96057.34
2023-02-03T02:47:42.306Z,96057.34
2023-02-03T02:50:32.119Z,96064.22
2023-02-03T02:53:21.693Z,96061.22
2023-02-03T02:56:11.687Z,96060.75
2023-02-03T02:58:58.463Z,96068.19
2023-02-03T03:01:44.977Z,96074.31
2023-02-03T03:04:32.751Z,96087.19
2023-02-03T03:07:24.734Z,96084.66
2023-02-03T03:10:14.020Z,96099.59
2023-02-03T03:13:04.090Z,96101.44
2023-02-03T03:15:51.632Z,96106.78
2023-02-03T03:18:58.406Z,96103.06
2023-02-03T03:21:49.476Z,96107.81
2023-02-03T03:24:41.466Z,96109.38
2023-02-03T03:27:32.504Z,96102.41
2023-02-03T03:30:24.740Z,96101.16
2023-02-03T03:33:10.888Z,96096.63
2023-02-03T03:36:23.431Z,96091.75
2023-02-03T03:39:22.531Z,96079.13
2023-02-03T03:42:32.134Z,96079.06
2023-02-03T03:45:17.817Z,96072.34
2023-02-03T03:48:07.766Z,96074.44
2023-02-03T03:50:58.828Z,96073.53
2023-02-03T03:53:46.011Z,96070.53
2023-02-03T03:56:40.523Z,96087.34
2023-02-03T03:59:30.536Z,96088.16
2023-02-03T04:02:17.502Z,96094.59
2023-02-03T04:05:03.790Z,96105.25
2023-02-03T04:07:49.755Z,96096.72
2023-02-03T04:10:39.756Z,96112.22
2023-02-03T04:13:26.709Z,96109.56
2023-02-03T04:16:12.424Z,96128.66
2023-02-03T04:18:58.422Z,96122.41
2023-02-03T04:21:44.257Z,96122.41
2023-02-03T04:24:30.292Z,96137.47
2023-02-03T04:27:15.841Z,96130.41
2023-02-03T04:30:01.864Z,96121.84
2023-02-03T04:32:48.014Z,96128.78
2023-02-03T04:35:35.146Z,96137.25
2023-02-03T04:38:20.734Z,96143.06
2023-02-03T04:41:06.499Z,96133.94
2023-02-03T04:43:52.150Z,96128.00
2023-02-03T04:46:38.099Z,96129.63
2023-02-03T04:49:23.830Z,96123.03
2023-02-03T04:52:10.265Z,96126.75
2023-02-03T04:54:56.210Z,96120.25
2023-02-03T04:57:41.947Z,96129.16
2023-02-03T05:00:29.063Z,96128.38
2023-02-03T05:03:14.932Z,96128.00
2023-02-03T05:06:00.711Z,96136.25
2023-02-03T05:08:46.482Z,96135.44
2023-02-03T05:11:32.148Z,96133.84
2023-02-03T05:14:17.907Z,96132.22
2023-02-03T05:17:03.659Z,96141.25
2023-02-03T05:19:49.461Z,96144.97
2023-02-03T05:22:35.735Z,96152.38
2023-02-03T05:25:21.570Z,96146.47
2023-02-03T05:28:07.437Z,96138.16
2023-02-03T05:30:53.482Z,96137.00
2023-02-03T05:33:39.183Z,96147.44
2023-02-03T05:36:25.631Z,96147.88
2023-02-03T05:39:11.720Z,96143.25
2023-02-03T05:41:58.605Z,96137.59
2023-02-03T05:44:44.744Z,96140.28
2023-02-03T05:47:30.392Z,96143.41
2023-02-03T05:50:16.258Z,96146.28
2023-02-03T05:53:04.307Z,96144.56
2023-02-03T05:55:50.199Z,96147.09
2023-02-03T05:58:36.137Z,96160.53
2023-02-03T06:01:21.942Z,96164.81
2023-02-03T06:04:07.689Z,96167.13
2023-02-03T06:06:53.589Z,96177.66
2023-02-03T06:09:39.340Z,96177.19
2023-02-03T06:12:28.224Z,96178.81
2023-02-03T06:15:15.426Z,96192.72
2023-02-03T06:18:01.528Z,96188.44
2023-02-03T06:20:47.081Z,96196.44
2023-02-03T06:23:33.093Z,96203.38
2023-02-03T06:26:18.730Z,96213.53
2023-02-03T06:29:04.556Z,96201.75
2023-02-03T06:31:50.504Z,96221.31
2023-02-03T06:34:36.625Z,96217.28
2023-02-03T06:37:23.907Z,96215.16
2023-02-03T06:40:12.126Z,96208.81
2023-02-03T06:42:58.000Z,96210.66
2023-02-03T06:45:49.665Z,96200.13
2023-02-03T06:48:35.502Z,96196.88
2023-02-03T06:51:21.365Z,96207.09
2023-02-03T06:54:07.796Z,96216.13
2023-02-03T06:56:53.803Z,96231.28
2023-02-03T06:59:39.324Z,96235.00
2023-02-03T07:02:25.252Z,96225.38
2023-02-03T07:05:11.289Z,96253.88
2023-02-03T07:07:57.512Z,96249.13
2023-02-03T07:10:43.459Z,96249.47
2023-02-03T07:13:29.101Z,96264.75
2023-02-03T07:16:14.945Z,96265.91
2023-02-03T07:19:00.884Z,96269.75
2023-02-03T07:21:47.166Z,96266.13
2023-02-03T07:24:33.023Z,96275.38
2023-02-03T07:27:19.990Z,96269.94
2023-02-03T07:30:06.483Z,96276.31
2023-02-03T07:32:53.615Z,96281.72
2023-02-03T07:35:39.551Z,96274.88
2023-02-03T07:38:26.935Z,96273.56
2023-02-03T07:41:12.778Z,96274.59
2023-02-03T07:43:58.443Z,96266.44
2023-02-03T07:46:45.603Z,96271.34
2023-02-03T07:49:31.525Z,96264.91
2023-02-03T07:52:17.442Z,96260.72
2023-02-03T07:55:03.970Z,96261.19
2023-02-03T07:57:49.620Z,96261.53
2023-02-03T08:00:35.522Z,96262.16
2023-02-03T08:03:21.454Z,96264.94
2023-02-03T08:06:08.064Z,96257.50
2023-02-03T08:08:54.190Z,96258.13
2023-02-03T08:11:40.931Z,96270.78
2023-02-03T08:14:26.583Z,96262.53
2023-02-03T08:17:12.443Z,96276.13
2023-02-03T08:19:58.116Z,96275.31
2023-02-03T08:22:45.382Z,96276.13
2023-02-03T08:25:31.096Z,96271.59
2023-02-03T08:28:17.165Z,96280.72
2023-02-03T08:31:10.116Z,96281.28
2023-02-03T08:33:56.395Z,96289.88
2023-02-03T08:36:43.948Z,96286.63
2023-02-03T08:39:29.643Z,96300.91
2023-02-03T08:42:15.665Z,96292.66
2023-02-03T08:45:02.837Z,96295.03
2023-02-03T08:47:51.691Z,96296.44
2023-02-03T08:50:37.519Z,96295.38
2023-02-03T08:53:27.440Z,96303.50
2023-02-03T08:56:22.363Z,96296.00
2023-02-03T08:59:08.120Z,96302.03
2023-02-03T09:01:54.054Z,96295.38
2023-02-03T09:04:40.108Z,96301.03
2023-02-03T09:07:26.222Z,96305.56
2023-02-03T09:10:11.996Z,96308.00
2023-02-03T09:12:57.631Z,96304.28
2023-02-03T09:15:43.306Z,96318.22
2023-02-03T09:18:29.057Z,96300.69
2023-02-03T09:21:31.616Z,96309.50
2023-02-03T09:24:19.006Z,96312.03
2023-02-03T09:27:04.932Z,96313.41
2023-02-03T09:29:50.664Z,96300.78
2023-02-03T09:32:36.528Z,96312.47
2023-02-03T09:35:22.811Z,96314.47
2023-02-03T09:38:08.745Z,96311.91
2023-02-03T09:41:21.824Z,96309.41
2023-02-03T09:44:46.607Z,96306.31
2023-02-03T09:47:37.875Z,96293.56
2023-02-03T09:50:27.302Z,96296.88
2023-02-03T09:53:19.318Z,96301.00
2023-02-03T09:56:05.100Z,96303.50
2023-02-03T09:58:51.216Z,96297.88
2023-02-03T10:01:58.712Z,96293.06
2023-02-03T10:05:20.987Z,96301.88
2023-02-03T10:08:20.765Z,96293.88
2023-02-03T10:11:12.556Z,96286.63
2023-02-03T10:14:20.057Z,96280.19
2023-02-03T10:17:14.721Z,96282.09
2023-02-03T10:20:33.540Z,96272.47
2023-02-03T10:23:29.089Z,96277.31
2023-02-03T10:26:21.839Z,96271.47
2023-02-03T10:29:35.316Z,96258.88
2023-02-03T10:32:21.185Z,96248.50
2023-02-03T10:35:12.787Z,96244.81
2023-02-03T10:37:59.543Z,96251.56
2023-02-03T10:40:45.612Z,96252.72
2023-02-03T10:43:48.767Z,96252.19
2023-02-03T10:46:36.685Z,96254.03
2023-02-03T10:49:22.769Z,96253.00
2023-02-03T10:52:08.371Z,96254.59
2023-02-03T10:54:54.306Z,96257.56
2023-02-03T10:57:45.079Z,96252.69
2023-02-03T11:00:32.451Z,96242.75
2023-02-03T11:03:29.619Z,96254.31
2023-02-03T11:06:17.402Z,96256.47
2023-02-03T11:09:22.616Z,96255.66
2023-02-03T11:12:14.215Z,96261.81
2023-02-03T11:15:06.585Z,96266.31
2023-02-03T11:17:52.225Z,96271.09
2023-02-03T11:20:38.244Z,96271.59
2023-02-03T11:23:23.970Z,96259.09
2023-02-03T11:26:14.400Z,96263.84
2023-02-03T11:29:02.538Z,96262.56
2023-02-03T11:32:02.032Z,96256.34
2023-02-03T11:34:58.038Z,96239.16
2023-02-03T11:37:45.988Z,96236.38
2023-02-03T11:40:34.308Z,96243.81
2023-02-03T11:43:25.162Z,96235.44
2023-02-03T11:46:11.192Z,96231.78
2023-02-03T11:49:00.835Z,96233.59
2023-02-03T11:51:55.990Z,96221.50
2023-02-03T11:54:51.527Z,96208.94
2023-02-03T11:58:00.194Z,96206.28
2023-02-03T12:00:49.006Z,96206.16
2023-02-03T12:03:53.157Z,96203.97
2023-02-03T12:07:12.252Z,96203.56
2023-02-03T12:10:07.374Z,96192.84
2023-02-03T12:13:01.816Z,96195.00
2023-02-03T12:16:03.916Z,96184.69
2023-02-03T12:18:58.408Z,96188.75
2023-02-03T12:21:54.099Z,96181.13
2023-02-03T12:24:53.295Z,96170.44
2023-02-03T12:27:51.130Z,96180.00
2023-02-03T12:30:48.875Z,96172.72
2023-02-03T12:33:40.569Z,96169.22
2023-02-03T12:36:49.675Z,96157.81
2023-02-03T12:40:17.431Z,96138.28
2023-02-03T12:43:17.855Z,96127.56
2023-02-03T12:46:18.408Z,96118.28
2023-02-03T12:49:21.466Z,96110.25
2023-02-03T12:52:09.832Z,96111.06
2023-02-03T12:54:58.691Z,96106.50
2023-02-03T12:58:45.337Z,96104.50
2023-02-03T13:01:44.214Z,96089.13
2023-02-03T13:04:34.215Z,96086.91
2023-02-03T13:07:37.456Z,96094.25
2023-02-03T13:10:27.634Z,96084.53
2023-02-03T13:13:18.044Z,96094.28
2023-02-03T13:16:07.344Z,96089.97
2023-02-03T13:18:58.722Z,96097.47
2023-02-03T13:21:46.680Z,96101.53
2023-02-03T13:24:32.549Z,96103.50
2023-02-03T13:27:21.452Z,96100.16
2023-02-03T13:30:27.273Z,96102.06
2023-02-03T13:33:46.914Z,96099.22
2023-02-03T13:37:05.553Z,96102.59
2023-02-03T13:40:15.077Z,96092.41
2023-02-03T13:43:05.787Z,96092.13
2023-02-03T13:45:52.673Z,96092.28
2023-02-03T13:48:38.666Z,96088.09
2023-02-03T13:51:30.038Z,96082.34
2023-02-03T13:54:32.490Z,96087.25
2023-02-03T13:57:40.680Z,96085.84
2023-02-03T14:00:44.782Z,96097.75
2023-02-03T14:03:30.559Z,96086.97
2023-02-03T14:06:38.506Z,96087.94
2023-02-03T14:09:30.365Z,96081.09
2023-02-03T14:12:16.141Z,96074.59
2023-02-03T14:15:16.983Z,96071.66
2023-02-03T14:18:03.859Z,96069.34
2023-02-03T14:20:52.304Z,96062.81
2023-02-03T14:23:47.738Z,96044.44
2023-02-03T14:26:38.755Z,96039.38
2023-02-03T14:29:27.755Z,96048.88
2023-02-03T14:32:14.004Z,96043.25
2023-02-03T14:34:59.901Z,96037.19
2023-02-03T14:38:06.961Z,96040.72
2023-02-03T14:41:03.234Z,96036.78
2023-02-03T14:44:09.433Z,96022.09
2023-02-03T14:47:27.665Z,96009.81
2023-02-03T14:50:41.002Z,96001.84
2023-02-03T14:54:02.070Z,96008.53
2023-02-03T14:57:09.106Z,96007.03
2023-02-03T15:00:04.462Z,96000.94
2023-02-03T15:03:12.049Z,95997.19
2023-02-03T15:06:03.462Z,95983.25
2023-02-03T15:08:49.629Z,95981.47
2023-02-03T15:11:45.908Z,95989.59
2023-02-03T15:14:32.672Z,95984.56
2023-02-03T15:17:25.822Z,95984.38
2023-02-03T15:20:41.543Z,95974.78
2023-02-03T15:23:39.205Z,95968.66
2023-02-03T15:26:26.344Z,95974.63
2023-02-03T15:29:22.087Z,95966.88
2023-02-03T15:32:08.187Z,95959.63
2023-02-03T15:34:54.503Z,95954.84
2023-02-03T15:37:45.688Z,95962.72
2023-02-03T15:40:59.113Z,95958.44
2023-02-03T15:43:46.932Z,95957.97
2023-02-03T15:46:35.239Z,95956.91
2023-02-03T15:49:41.834Z,95959.63
2023-02-03T15:52:29.276Z,95961.25
2023-02-03T15:55:42.163Z,95957.50
2023-02-03T15:58:30.296Z,95946.78
2023-02-03T16:01:20.250Z,95929.38
2023-02-03T16:04:09.788Z,95934.75
2023-02-03T16:06:56.165Z,95932.88
2023-02-03T16:09:41.947Z,95934.78
2023-02-03T16:12:34.585Z,95931.84
2023-02-03T16:15:26.076Z,95925.16
2023-02-03T16:18:17.855Z,95934.56
2023-02-03T16:21:07.133Z,95935.41
2023-02-03T16:23:54.578Z,95926.28
2023-02-03T16:26:40.601Z,95928.16
2023-02-03T16:29:48.735Z,95914.22
2023-02-03T16:32:54.775Z,95913.16
2023-02-03T16:36:00.422Z,95906.72
2023-02-03T16:39:05.941Z,95913.69
2023-02-03T16:42:11.401Z,95912.38
2023-02-03T16:45:17.535Z,95907.56
2023-02-03T16:48:22.965Z,95916.97
2023-02-03T16:51:16.824Z,95916.44
2023-02-03T16:54:02.843Z,95894.69
2023-02-03T16:56:49.498Z,95897.09
2023-02-03T16:59:36.142Z,95897.09
2023-02-03T17:02:21.893Z,95903.00
2023-02-03T17:05:07.891Z,95908.38
2023-02-03T17:07:53.415Z,95905.19
2023-02-03T17:10:41.216Z,95890.44
2023-02-03T17:13:27.011Z,95895.03
2023-02-03T17:16:17.140Z,95897.22
2023-02-03T17:19:02.877Z,95882.44
2023-02-03T17:21:49.700Z,95881.09
2023-02-03T17:24:35.786Z,95872.28
2023-02-03T17:27:22.087Z,95883.28
2023-02-03T17:30:08.505Z,95889.72
2023-02-03T17:32:54.247Z,95876.56
2023-02-03T17:35:44.351Z,95872.56
2023-02-03T17:38:31.580Z,95869.88
2023-02-03T17:53:37.149Z,95846.78
2023-02-03T17:56:25.310Z,95850.28
2023-02-03T17:59:11.559Z,95841.97
2023-02-03T18:01:57.564Z,95842.81
2023-02-03T18:04:44.553Z,95837.16
2023-02-03T18:07:30.489Z,95842.53
2023-02-03T18:10:17.541Z,95824.28
2023-02-03T18:13:04.822Z,95819.47
2023-02-03T18:15:50.888Z,95806.84
2023-02-03T18:18:38.871Z,95804.19
2023-02-03T18:21:26.658Z,95797.22
2023-02-03T18:24:13.789Z,95793.75
2023-02-03T18:27:00.799Z,95780.34
2023-02-03T18:29:48.258Z,95772.84
2023-02-03T18:32:35.057Z,95771.78
2023-02-03T18:35:20.985Z,95772.31
2023-02-03T18:38:07.793Z,95772.84
2023-02-03T18:40:55.090Z,95768.59
2023-02-03T18:43:42.404Z,95760.53
2023-02-03T18:46:30.559Z,95766.47
2023-02-03T18:49:17.514Z,95751.16
2023-02-03T18:52:04.377Z,95746.09
2023-02-03T18:54:51.780Z,95745.81
2023-02-03T18:57:38.003Z,95752.50
2023-02-03T19:00:37.152Z,95741.25
2023-02-03T19:03:27.067Z,95728.91
2023-02-03T19:06:13.367Z,95720.88
2023-02-03T19:09:05.488Z,95721.41
2023-02-03T19:11:51.533Z,95725.94
2023-02-03T19:14:37.887Z,95712.03
2023-02-03T19:22:02.142Z,95709.06
2023-02-03T19:24:47.920Z,95702.91
2023-02-03T19:27:55.701Z,95699.44
2023-02-03T19:31:19.486Z,95683.88
2023-02-03T19:34:05.907Z,95674.78
2023-02-03T19:36:52.695Z,95666.72
2023-02-03T19:39:39.433Z,95651.72
2023-02-03T19:42:25.393Z,95629.75
2023-02-03T19:45:12.088Z,95637.53
2023-02-03T19:47:57.764Z,95639.41
2023-02-03T19:50:45.984Z,95638.88
2023-02-03T19:53:31.895Z,95641.81
2023-02-03T19:56:17.749Z,95657.09
2023-02-03T19:59:04.496Z,95660.31
2023-02-03T20:01:50.804Z,95655.53
2023-02-03T20:04:36.745Z,95642.66
2023-02-03T20:07:23.322Z,95649.63
2023-02-03T20:10:09.472Z,95647.47
2023-02-03T20:12:56.387Z,95643.19
2023-02-03T20:15:42.568Z,95632.44
2023-02-03T20:18:29.531Z,95636.47
2023-02-03T20:21:15.319Z,95625.75
2023-02-03T20:24:01.143Z,95626.00
2023-02-03T20:26:47.269Z,95632.97
2023-02-03T20:29:33.123Z,95631.38
2023-02-03T20:32:18.876Z,95617.44
2023-02-03T20:35:06.860Z,95617.44
2023-02-03T20:37:53.318Z,95623.34
2023-02-03T20:40:39.129Z,95618.50
2023-02-03T20:43:27.774Z,95630.31
2023-02-03T20:46:18.675Z,95634.84
2023-02-03T20:49:04.574Z,95627.09
2023-02-03T20:51:50.259Z,95627.13
2023-02-03T20:54:37.283Z,95619.59
2023-02-03T20:57:23.230Z,95608.09
2023-02-03T21:00:23.436Z,95611.59
2023-02-03T21:03:33.009Z,95613.19
2023-02-03T21:06:20.231Z,95617.50
2023-02-03T21:09:15.985Z,95604.09
2023-02-03T21:12:01.940Z,95602.78
2023-02-03T21:14:53.265Z,95599.56
2023-02-03T21:17:39.043Z,95590.19
2023-02-03T21:20:31.210Z,95596.06
2023-02-03T21:23:17.989Z,95599.81
2023-02-03T21:26:16.394Z,95591.78
2023-02-03T21:29:02.459Z,95576.78
2023-02-03T21:31:48.759Z,95576.81
2023-02-03T21:34:35.790Z,95587.00
2023-02-03T21:37:39.069Z,95583.22
2023-02-03T21:40:27.909Z,95585.38
2023-02-03T21:43:18.431Z,95584.31
2023-02-03T21:46:04.238Z,95577.88
2023-02-03T21:48:55.211Z,95577.88
2023-02-03T21:51:41.814Z,95573.88
2023-02-03T21:54:30.459Z,95579.47
2023-02-03T21:57:17.117Z,95579.47
2023-02-03T22:00:35.067Z,95583.78
2023-02-03T22:03:30.546Z,95580.03
2023-02-03T22:06:20.840Z,95570.34
2023-02-03T22:09:07.092Z,95537.16
2023-02-03T22:11:53.163Z,95565.50
2023-02-03T22:14:39.233Z,95566.81
2023-02-03T22:17:25.070Z,95556.34
2023-02-03T22:20:12.087Z,95559.31
2023-02-03T22:22:57.920Z,95552.59
2023-02-03T22:25:44.317Z,95554.72
2023-02-03T22:28:30.182Z,95532.50
2023-02-03T22:31:16.454Z,95548.81
2023-02-03T22:34:02.674Z,95554.19
2023-02-03T22:36:48.592Z,95537.03
2023-02-03T22:39:34.366Z,95549.31
2023-02-03T22:42:22.372Z,95545.00
2023-02-03T22:45:09.013Z,95542.03
2023-02-03T22:47:57.185Z,95543.13
2023-02-03T22:50:43.350Z,95541.78
2023-02-03T22:53:29.557Z,95535.63
2023-02-03T22:56:15.260Z,95533.22
2023-02-03T22:59:02.998Z,95531.59
2023-02-03T23:01:48.708Z,95528.94
2023-02-03T23:04:34.784Z,95525.13
2023-02-03T23:07:20.574Z,95528.94
2023-02-03T23:10:10.522Z,95519.81
2023-02-03T23:12:58.527Z,95524.13
2023-02-03T23:15:48.739Z,95521.47
2023-02-03T23:18:34.480Z,95524.19
2023-02-03T23:21:20.226Z,95518.34
2023-02-03T23:24:06.376Z,95511.41
2023-02-03T23:26:53.856Z,95505.25
2023-02-03T23:29:39.912Z,95513.59
2023-02-03T23:32:25.966Z,95500.50
2023-02-03T23:35:30.509Z,95499.97
2023-02-03T23:38:17.787Z,95498.13
2023-02-03T23:41:03.885Z,95505.63
2023-02-03T23:43:49.835Z,95505.09
2023-02-03T23:46:35.911Z,95501.09
2023-02-03T23:49:21.766Z,95501.09
2023-02-03T23:52:07.732Z,95493.59
2023-02-03T23:54:53.522Z,95498.69
2023-02-03T23:57:39.288Z,95494.66
